createdAt,value
2019-01-26T00:01:28.015Z,99867.65
2019-01-26T00:04:17.540Z,99854.41
2019-01-26T00:16:27.248Z,99816.36
2019-01-26T00:19:15.511Z,99807.62
2019-01-26T00:22:03.010Z,99798.95
2019-01-26T00:24:50.939Z,99798.89
2019-01-26T00:27:38.704Z,99796.68
2019-01-26T00:30:25.749Z,99800.48
2019-01-26T00:36:21.701Z,99790.02
2019-01-26T00:39:13.012Z,99779.97
2019-01-26T00:42:00.451Z,99773.42
2019-01-26T00:44:47.623Z,99767.75
2019-01-26T00:47:42.722Z,99765.52
2019-01-26T00:53:36.500Z,99758.02
2019-01-26T00:56:26.328Z,99752.77
2019-01-26T00:59:14.256Z,99750.52
2019-01-26T01:02:02.389Z,99741.31
2019-01-26T01:04:49.850Z,99746.91
2019-01-26T01:13:51.029Z,99737.30
2019-01-26T01:16:38.480Z,99734.75
2019-01-26T01:19:26.035Z,99737.80
2019-01-26T01:28:26.277Z,99703.22
2019-01-26T01:31:17.678Z,99707.09
2019-01-26T01:37:19.742Z,99687.48
2019-01-26T01:40:07.355Z,99688.69
2019-01-26T01:42:55.798Z,99685.44
2019-01-26T01:45:42.885Z,99683.33
2019-01-26T01:48:30.346Z,99683.33
2019-01-26T01:51:24.632Z,99683.29
2019-01-26T01:54:12.221Z,99676.31
2019-01-26T01:56:59.755Z,99666.71
2019-01-26T01:59:47.344Z,99672.75
2019-01-26T02:02:40.016Z,99671.84
2019-01-26T02:05:27.137Z,99665.75
2019-01-26T02:08:14.144Z,99666.56
2019-01-26T02:11:02.198Z,99656.58
2019-01-26T02:13:51.424Z,99649.58
2019-01-26T02:16:40.732Z,99642.15
2019-01-26T02:19:27.930Z,99622.16
2019-01-26T02:22:15.061Z,99626.47
2019-01-26T02:25:02.818Z,99621.34
2019-01-26T02:27:52.505Z,99618.09
2019-01-26T02:30:43.665Z,99615.99
2019-01-26T02:33:41.631Z,99600.88
2019-01-26T02:36:32.549Z,99591.81
2019-01-26T02:39:20.461Z,99586.53
2019-01-26T02:42:09.325Z,99588.38
2019-01-26T02:44:59.599Z,99581.82
2019-01-26T02:47:52.487Z,99569.63
2019-01-26T02:50:51.376Z,99580.07
2019-01-26T02:53:46.654Z,99581.75
2019-01-26T02:56:34.935Z,99565.12
2019-01-26T02:59:24.988Z,99568.88
2019-01-26T03:02:11.983Z,99560.41
2019-01-26T03:04:59.401Z,99554.95
2019-01-26T03:07:46.857Z,99544.08
2019-01-26T03:10:34.553Z,99545.73
2019-01-26T03:13:21.928Z,99551.47
2019-01-26T03:16:09.335Z,99544.13
2019-01-26T03:18:57.494Z,99532.11
2019-01-26T03:21:44.650Z,99534.51
2019-01-26T03:27:38.752Z,99540.03
2019-01-26T03:30:26.477Z,99542.72
2019-01-26T03:33:22.309Z,99529.64
2019-01-26T03:36:10.321Z,99530.55
2019-01-26T03:39:01.191Z,99525.04
2019-01-26T03:41:46.289Z,99518.60
2019-01-26T03:47:41.012Z,99525.56
2019-01-26T03:50:28.413Z,99521.51
2019-01-26T03:53:16.288Z,99533.01
2019-01-26T03:56:04.926Z,99521.73
2019-01-26T03:58:53.284Z,99527.30
2019-01-26T04:01:40.486Z,99523.61
2019-01-26T04:04:28.237Z,99522.66
2019-01-26T04:07:16.034Z,99517.77
2019-01-26T04:10:03.801Z,99520.92
2019-01-26T04:12:51.910Z,99522.98
2019-01-26T04:15:39.598Z,99521.20
2019-01-26T04:18:26.944Z,99520.23
2019-01-26T04:24:20.553Z,99516.41
2019-01-26T04:27:15.918Z,99516.81
2019-01-26T04:30:04.313Z,99505.27
2019-01-26T04:32:52.092Z,99504.62
2019-01-26T04:35:39.513Z,99508.47
2019-01-26T04:38:26.710Z,99502.91
2019-01-26T04:41:15.330Z,99510.26
2019-01-26T04:44:05.097Z,99511.88
2019-01-26T04:46:52.562Z,99517.16
2019-01-26T04:49:40.021Z,99509.85
2019-01-26T04:52:27.754Z,99517.12
2019-01-26T04:55:14.848Z,99514.53
2019-01-26T04:58:02.267Z,99511.33
2019-01-26T05:00:52.127Z,99510.11
2019-01-26T05:03:39.537Z,99510.17
2019-01-26T05:06:26.477Z,99507.53
2019-01-26T05:09:13.751Z,99506.83
2019-01-26T05:18:13.048Z,99511.53
2019-01-26T05:21:00.471Z,99516.75
2019-01-26T05:23:47.902Z,99516.75
2019-01-26T05:26:35.313Z,99520.72
2019-01-26T05:29:22.544Z,99520.94
2019-01-26T05:32:09.851Z,99520.64
2019-01-26T05:34:57.363Z,99521.03
2019-01-26T05:37:44.736Z,99538.46
2019-01-26T05:46:44.376Z,99530.03
2019-01-26T05:49:47.250Z,99533.95
2019-01-26T05:52:34.788Z,99524.45
2019-01-26T05:55:22.277Z,99519.32
2019-01-26T05:58:09.596Z,99513.00
2019-01-26T06:00:56.916Z,99515.16
2019-01-26T06:03:44.296Z,99509.88
2019-01-26T06:06:32.144Z,99517.70
2019-01-26T06:09:19.694Z,99527.27
2019-01-26T06:12:06.818Z,99523.70
2019-01-26T06:14:53.957Z,99514.97
2019-01-26T06:17:43.468Z,99521.08
2019-01-26T06:23:45.005Z,99524.01
2019-01-26T06:26:33.080Z,99523.13
2019-01-26T06:29:20.399Z,99531.77
2019-01-26T06:32:07.376Z,99513.77
2019-01-26T06:34:55.093Z,99524.02
2019-01-26T06:37:42.147Z,99514.64
2019-01-26T06:40:29.609Z,99513.14
2019-01-26T06:46:23.043Z,99509.17
2019-01-26T06:49:11.376Z,99502.42
2019-01-26T06:51:58.959Z,99512.33
2019-01-26T06:54:46.286Z,99514.16
2019-01-26T06:57:33.782Z,99513.05
2019-01-26T07:00:24.512Z,99512.36
2019-01-26T07:03:12.024Z,99520.71
2019-01-26T07:06:02.106Z,99521.69
2019-01-26T07:11:56.144Z,99518.38
2019-01-26T07:14:43.521Z,99513.58
2019-01-26T07:17:31.851Z,99512.27
2019-01-26T07:20:18.322Z,99514.09
2019-01-26T07:23:05.618Z,99513.52
2019-01-26T07:25:53.360Z,99511.79
2019-01-26T07:28:40.684Z,99507.75
2019-01-26T07:31:28.310Z,99515.19
2019-01-26T07:34:16.545Z,99518.09
2019-01-26T07:37:03.413Z,99512.73
2019-01-26T07:39:52.479Z,99510.12
2019-01-26T07:42:40.101Z,99513.61
2019-01-26T07:45:27.687Z,99510.78
2019-01-26T07:48:16.832Z,99506.37
2019-01-26T07:51:02.370Z,99510.75
2019-01-26T08:00:05.018Z,99511.31
2019-01-26T08:02:59.416Z,99515.20
2019-01-26T08:05:46.968Z,99509.09
2019-01-26T08:08:38.725Z,99509.16
2019-01-26T08:11:25.843Z,99511.64
2019-01-26T08:14:14.490Z,99505.09
2019-01-26T08:17:02.219Z,99508.97
2019-01-26T08:19:49.758Z,99504.50
2019-01-26T08:22:38.403Z,99498.75
2019-01-26T08:25:25.726Z,99503.31
2019-01-26T08:28:15.436Z,99493.61
2019-01-26T08:31:02.715Z,99490.47
2019-01-26T08:33:50.955Z,99490.47
2019-01-26T08:36:37.863Z,99489.42
2019-01-26T08:39:27.230Z,99479.39
2019-01-26T08:42:22.612Z,99486.71
2019-01-26T08:48:16.144Z,99485.47
2019-01-26T08:51:05.849Z,99484.41
2019-01-26T08:57:10.170Z,99479.91
2019-01-26T09:03:04.952Z,99490.66
2019-01-26T09:05:54.782Z,99489.02
2019-01-26T09:11:47.422Z,99496.93
2019-01-26T09:14:42.396Z,99488.03
2019-01-26T09:17:29.792Z,99488.36
2019-01-26T09:23:28.077Z,99486.52
2019-01-26T09:32:28.825Z,99475.47
2019-01-26T09:35:18.987Z,99482.13
2019-01-26T09:38:10.430Z,99485.88
2019-01-26T09:40:58.070Z,99475.67
2019-01-26T09:43:46.845Z,99470.19
2019-01-26T09:49:55.916Z,99464.40
2019-01-26T09:53:01.564Z,99466.41
2019-01-26T09:55:50.158Z,99474.97
2019-01-26T10:01:54.780Z,99457.33
2019-01-26T10:04:42.837Z,99458.67
2019-01-26T10:10:36.646Z,99447.25
2019-01-26T10:13:24.527Z,99437.48
2019-01-26T10:16:20.083Z,99434.27
2019-01-26T10:19:13.134Z,99440.00
2019-01-26T10:22:01.339Z,99431.89
2019-01-26T10:24:49.192Z,99434.09
2019-01-26T10:27:38.726Z,99436.13
2019-01-26T10:30:32.128Z,99427.14
2019-01-26T10:33:28.298Z,99423.88
2019-01-26T11:01:27.551Z,99382.86
2019-01-26T11:04:18.294Z,99373.58
2019-01-26T11:07:10.199Z,99379.24
2019-01-26T11:09:57.865Z,99376.31
2019-01-26T11:12:51.588Z,99366.80
2019-01-26T11:15:40.534Z,99358.45
2019-01-26T11:21:34.229Z,99353.90
2019-01-26T11:24:24.898Z,99349.75
2019-01-26T11:30:17.708Z,99340.55
2019-01-26T11:36:12.960Z,99327.03
2019-01-26T11:42:13.056Z,99315.05
2019-01-26T11:45:04.226Z,99319.88
2019-01-26T11:47:51.602Z,99317.16
2019-01-26T11:50:50.754Z,99313.08
2019-01-26T11:53:48.579Z,99301.90
2019-01-26T11:59:44.465Z,99299.14
2019-01-26T12:02:33.976Z,99296.81
2019-01-26T12:05:38.130Z,99297.67
2019-01-26T12:08:28.176Z,99289.59
2019-01-26T12:11:16.106Z,99289.46
2019-01-26T12:14:06.717Z,99289.00
2019-01-26T12:16:54.238Z,99290.08
2019-01-26T12:19:41.562Z,99291.11
2019-01-26T12:22:32.696Z,99290.56
2019-01-26T12:25:19.948Z,99282.78
2019-01-26T12:31:16.993Z,99287.91
2019-01-26T12:34:04.354Z,99287.61
2019-01-26T12:37:07.778Z,99283.67
2019-01-26T12:39:57.350Z,99274.42
2019-01-26T12:45:52.793Z,99282.53
2019-01-26T12:48:41.954Z,99283.00
2019-01-26T12:57:55.483Z,99275.22
2019-01-26T13:00:45.446Z,99277.91
2019-01-26T13:03:37.335Z,99274.33
2019-01-26T13:09:33.857Z,99272.89
2019-01-26T13:12:22.194Z,99273.11
2019-01-26T13:18:18.222Z,99270.00
2019-01-26T13:21:09.523Z,99275.77
2019-01-26T13:23:56.637Z,99268.45
2019-01-26T13:26:43.870Z,99277.80
2019-01-26T13:29:33.630Z,99273.69
2019-01-26T13:35:29.822Z,99276.03
2019-01-26T13:38:19.016Z,99272.93
2019-01-26T13:41:09.411Z,99270.92
2019-01-26T13:50:13.481Z,99281.05
2019-01-26T13:53:04.584Z,99280.67
2019-01-26T14:05:15.753Z,99286.92
2019-01-26T14:08:04.366Z,99271.68
2019-01-26T14:11:10.688Z,99277.06
2019-01-26T14:14:04.808Z,99275.17
2019-01-26T14:20:04.470Z,99275.42
2019-01-26T14:22:53.657Z,99275.52
2019-01-26T14:25:44.013Z,99279.41
2019-01-26T14:28:34.761Z,99268.09
2019-01-26T14:31:33.317Z,99268.05
2019-01-26T14:34:22.255Z,99276.02
2019-01-26T14:37:10.855Z,99281.73
2019-01-26T14:40:02.238Z,99275.64
2019-01-26T14:45:57.075Z,99284.09
2019-01-26T14:48:45.712Z,99277.59
2019-01-26T14:51:35.002Z,99278.61
2019-01-26T14:54:23.169Z,99279.41
2019-01-26T15:00:27.554Z,99281.73
2019-01-26T15:03:15.596Z,99281.73
2019-01-26T15:06:05.212Z,99286.17
2019-01-26T15:08:53.547Z,99281.78
2019-01-26T15:11:42.063Z,99287.10
2019-01-26T15:17:48.796Z,99283.72
2019-01-26T15:20:44.459Z,99277.16
2019-01-26T15:23:32.277Z,99285.88
2019-01-26T15:26:20.748Z,99285.40
2019-01-26T15:44:46.932Z,99286.17
2019-01-26T15:47:34.769Z,99289.47
2019-01-26T15:50:29.667Z,99282.15
2019-01-26T15:59:31.324Z,99287.64
2019-01-26T16:20:59.517Z,99285.57
2019-01-26T16:23:47.741Z,99283.78
2019-01-26T16:26:38.270Z,99284.18
2019-01-26T16:42:11.069Z,99279.10
2019-01-26T16:45:01.635Z,99277.83
2019-01-26T17:00:36.958Z,99277.54
2019-01-26T17:03:28.431Z,99275.38
2019-01-26T17:09:25.413Z,99269.63
2019-01-26T17:12:14.385Z,99276.14
2019-01-26T17:15:02.470Z,99271.78
2019-01-26T17:17:50.606Z,99268.17
2019-01-26T17:20:41.482Z,99267.73
2019-01-26T17:26:43.971Z,99272.93
2019-01-26T17:29:32.171Z,99260.75
2019-01-26T17:32:19.728Z,99259.36
2019-01-26T17:35:10.074Z,99258.61
2019-01-26T17:37:58.496Z,99247.20
2019-01-26T17:43:56.661Z,99251.01
2019-01-26T17:52:57.400Z,99243.62
2019-01-26T18:05:08.573Z,99242.31
2019-01-26T18:11:05.339Z,99243.96
2019-01-26T18:20:13.257Z,99235.72
2019-01-26T18:26:24.462Z,99240.03
2019-01-26T18:29:12.190Z,99245.59
2019-01-26T18:32:03.885Z,99234.34
2019-01-26T18:37:59.070Z,99223.92
2019-01-26T18:40:48.024Z,99232.66
2019-01-26T18:43:35.735Z,99229.04
2019-01-26T18:46:26.014Z,99229.55
2019-01-26T18:49:15.052Z,99226.63
2019-01-26T18:55:09.805Z,99217.52
2019-01-26T18:57:57.562Z,99217.27
2019-01-26T19:07:02.722Z,99211.61
2019-01-26T19:09:50.697Z,99204.97
2019-01-26T19:12:40.426Z,99208.39
2019-01-26T19:15:28.361Z,99209.53
2019-01-26T19:18:16.125Z,99201.54
2019-01-26T19:21:04.525Z,99205.38
2019-01-26T19:23:51.816Z,99208.09
2019-01-26T19:26:39.203Z,99203.02
2019-01-26T19:29:26.642Z,99199.33
2019-01-26T19:32:15.620Z,99198.91
2019-01-26T19:35:04.064Z,99185.42
2019-01-26T19:47:11.979Z,99184.71
2019-01-26T20:02:46.875Z,99171.17
2019-01-26T20:05:34.586Z,99163.91
2019-01-26T20:14:35.554Z,99162.95
2019-01-26T20:17:22.965Z,99163.19
2019-01-26T20:20:13.735Z,99159.89
2019-01-26T20:26:16.877Z,99147.88
2019-01-26T20:29:04.566Z,99148.32
2019-01-26T20:31:51.705Z,99146.16
2019-01-26T20:34:40.499Z,99144.64
2019-01-26T20:37:28.032Z,99143.62
2019-01-26T20:40:15.610Z,99137.83
2019-01-26T20:43:03.301Z,99139.14
2019-01-26T20:45:52.222Z,99135.02
2019-01-26T20:48:55.465Z,99129.20
2019-01-26T20:51:43.294Z,99126.84
2019-01-26T20:57:38.654Z,99135.55
2019-01-26T21:00:27.504Z,99128.00
2019-01-26T21:03:14.887Z,99126.48
2019-01-26T21:12:22.472Z,99116.48
2019-01-26T21:15:09.893Z,99108.34
2019-01-26T21:18:05.213Z,99111.03
2019-01-26T21:20:53.077Z,99101.59
2019-01-26T21:23:40.663Z,99099.04
2019-01-26T21:32:48.627Z,99101.77
2019-01-26T21:35:36.396Z,99105.93
2019-01-26T21:38:23.879Z,99101.26
2019-01-26T21:41:11.212Z,99099.03
2019-01-26T21:44:01.802Z,99095.81
2019-01-26T21:46:49.593Z,99087.91
2019-01-26T21:49:37.492Z,99076.61
2019-01-26T21:52:25.113Z,99085.59
2019-01-26T21:55:15.520Z,99086.28
2019-01-26T21:58:02.898Z,99087.15
2019-01-26T22:00:50.636Z,99084.73
2019-01-26T22:09:50.451Z,99081.36
2019-01-26T22:15:45.180Z,99074.67
2019-01-26T22:21:45.855Z,99063.34
2019-01-26T22:24:26.926Z,99060.75
2019-01-26T22:27:18.248Z,99056.91
2019-01-26T22:30:05.919Z,99047.98
2019-01-26T22:32:53.286Z,99036.59
2019-01-26T22:35:41.591Z,99038.80
2019-01-26T22:50:57.598Z,99019.78
2019-01-26T22:53:46.955Z,99011.55
2019-01-26T22:56:35.178Z,99001.06
2019-01-26T22:59:27.947Z,98998.56
2019-01-26T23:02:15.599Z,98990.14
2019-01-26T23:05:08.015Z,98990.95
2019-01-26T23:07:56.817Z,98976.11
2019-01-26T23:10:48.695Z,98972.45
2019-01-26T23:20:17.483Z,98959.80
2019-01-26T23:39:23.910Z,98950.05
2019-01-26T23:42:11.188Z,98948.74
2019-01-26T23:45:08.951Z,98940.53
2019-01-26T23:47:57.508Z,98931.17
